sensor_id;sensor_type;location;lat;lon;timestamp;pressure;altitude;pressure_sealevel;temperature;humidity
9676;BME280;4876;42.656;23.292;2022-09-27T00:01:42;93458.41;;;14.60;100.00
9676;BME280;4876;42.656;23.292;2022-09-27T00:04:10;93465.28;;;14.65;100.00
9676;BME280;4876;42.656;23.292;2022-09-27T00:06:37;93457.56;;;14.79;100.00
9676;BME280;4876;42.656;23.292;2022-09-27T00:09:04;93464.59;;;14.71;100.00
9676;BME280;4876;42.656;23.292;2022-09-27T00:11:32;93461.50;;;14.92;100.00
9676;BME280;4876;42.656;23.292;2022-09-27T00:14:00;93469.19;;;15.01;100.00
9676;BME280;4876;42.656;23.292;2022-09-27T00:16:30;93467.28;;;15.01;100.00
9676;BME280;4876;42.656;23.292;2022-09-27T00:18:58;93488.00;;;14.96;100.00
9676;BME280;4876;42.656;23.292;2022-09-27T00:21:25;93477.50;;;14.73;100.00
9676;BME280;4876;42.656;23.292;2022-09-27T00:23:52;93478.16;;;14.66;100.00
9676;BME280;4876;42.656;23.292;2022-09-27T00:26:19;93483.47;;;14.66;100.00
9676;BME280;4876;42.656;23.292;2022-09-27T00:28:53;93475.09;;;14.64;100.00
9676;BME280;4876;42.656;23.292;2022-09-27T00:31:23;93476.88;;;14.83;100.00
9676;BME280;4876;42.656;23.292;2022-09-27T00:33:58;93480.13;;;14.99;100.00
9676;BME280;4876;42.656;23.292;2022-09-27T00:36:26;93469.91;;;14.71;100.00
9676;BME280;4876;42.656;23.292;2022-09-27T00:38:54;93452.56;;;14.74;100.00
9676;BME280;4876;42.656;23.292;2022-09-27T00:41:23;93464.28;;;14.73;100.00
9676;BME280;4876;42.656;23.292;2022-09-27T00:43:51;93464.38;;;14.53;100.00
9676;BME280;4876;42.656;23.292;2022-09-27T00:46:23;93462.66;;;14.42;100.00
9676;BME280;4876;42.656;23.292;2022-09-27T00:49:02;93455.50;;;14.69;100.00
9676;BME280;4876;42.656;23.292;2022-09-27T00:51:33;93450.78;;;14.55;100.00
9676;BME280;4876;42.656;23.292;2022-09-27T00:54:02;93458.22;;;14.72;100.00
9676;BME280;4876;42.656;23.292;2022-09-27T00:56:31;93448.50;;;14.53;100.00
9676;BME280;4876;42.656;23.292;2022-09-27T00:59:02;93438.56;;;14.73;100.00
9676;BME280;4876;42.656;23.292;2022-09-27T01:01:33;93446.66;;;14.58;100.00
9676;BME280;4876;42.656;23.292;2022-09-27T01:04:05;93429.78;;;14.66;100.00
9676;BME280;4876;42.656;23.292;2022-09-27T01:06:33;93440.97;;;14.56;100.00
9676;BME280;4876;42.656;23.292;2022-09-27T01:09:00;93447.00;;;14.56;100.00
9676;BME280;4876;42.656;23.292;2022-09-27T01:11:35;93446.78;;;14.42;100.00
9676;BME280;4876;42.656;23.292;2022-09-27T01:14:17;93449.47;;;14.45;100.00
9676;BME280;4876;42.656;23.292;2022-09-27T01:16:57;93428.97;;;14.39;100.00
9676;BME280;4876;42.656;23.292;2022-09-27T01:19:48;93420.09;;;14.27;100.00
9676;BME280;4876;42.656;23.292;2022-09-27T01:22:25;93375.59;;;13.84;100.00
9676;BME280;4876;42.656;23.292;2022-09-27T01:25:08;93427.16;;;14.20;100.00
9676;BME280;4876;42.656;23.292;2022-09-27T01:28:08;93423.34;;;14.17;100.00
9676;BME280;4876;42.656;23.292;2022-09-27T01:30:44;93409.19;;;14.06;100.00
9676;BME280;4876;42.656;23.292;2022-09-27T01:33:33;93430.28;;;14.02;100.00
9676;BME280;4876;42.656;23.292;2022-09-27T01:36:10;93429.88;;;14.00;100.00
9676;BME280;4876;42.656;23.292;2022-09-27T01:38:46;93431.34;;;13.98;100.00
9676;BME280;4876;42.656;23.292;2022-09-27T01:41:25;93443.09;;;14.00;100.00
9676;BME280;4876;42.656;23.292;2022-09-27T01:43:55;93448.50;;;14.08;100.00
9676;BME280;4876;42.656;23.292;2022-09-27T01:46:28;93446.22;;;14.06;100.00
9676;BME280;4876;42.656;23.292;2022-09-27T01:48:59;93429.41;;;13.95;100.00
9676;BME280;4876;42.656;23.292;2022-09-27T01:51:34;93437.88;;;14.04;100.00
9676;BME280;4876;42.656;23.292;2022-09-27T01:54:04;93452.84;;;13.96;100.00
9676;BME280;4876;42.656;23.292;2022-09-27T01:56:36;93426.97;;;14.09;100.00
9676;BME280;4876;42.656;23.292;2022-09-27T01:59:08;93405.53;;;14.14;100.00
9676;BME280;4876;42.656;23.292;2022-09-27T02:01:39;93386.28;;;13.91;100.00
9676;BME280;4876;42.656;23.292;2022-09-27T02:04:10;93417.53;;;14.08;100.00
9676;BME280;4876;42.656;23.292;2022-09-27T02:06:42;93413.72;;;13.83;100.00
9676;BME280;4876;42.656;23.292;2022-09-27T02:09:13;93404.84;;;13.94;100.00
9676;BME280;4876;42.656;23.292;2022-09-27T02:11:45;93391.91;;;14.12;100.00
9676;BME280;4876;42.656;23.292;2022-09-27T02:14:17;93387.50;;;14.20;100.00
9676;BME280;4876;42.656;23.292;2022-09-27T02:16:48;93399.44;;;14.10;100.00
9676;BME280;4876;42.656;23.292;2022-09-27T02:19:23;93385.75;;;14.05;100.00
9676;BME280;4876;42.656;23.292;2022-09-27T02:21:58;93389.75;;;14.18;100.00
9676;BME280;4876;42.656;23.292;2022-09-27T02:24:37;93363.69;;;13.93;100.00
9676;BME280;4876;42.656;23.292;2022-09-27T02:27:11;93370.69;;;14.09;100.00
9676;BME280;4876;42.656;23.292;2022-09-27T02:29:44;93354.94;;;14.16;100.00
9676;BME280;4876;42.656;23.292;2022-09-27T02:32:13;93341.63;;;14.09;100.00
9676;BME280;4876;42.656;23.292;2022-09-27T02:34:41;93357.69;;;13.96;100.00
9676;BME280;4876;42.656;23.292;2022-09-27T02:37:10;93338.47;;;13.99;100.00
9676;BME280;4876;42.656;23.292;2022-09-27T02:39:37;93337.56;;;14.15;100.00
9676;BME280;4876;42.656;23.292;2022-09-27T02:42:04;93339.72;;;13.83;100.00
9676;BME280;4876;42.656;23.292;2022-09-27T02:44:32;93366.63;;;13.88;100.00
9676;BME280;4876;42.656;23.292;2022-09-27T02:47:10;93358.34;;;13.90;100.00
9676;BME280;4876;42.656;23.292;2022-09-27T02:49:48;93350.94;;;13.76;100.00
9676;BME280;4876;42.656;23.292;2022-09-27T02:52:27;93351.34;;;13.78;100.00
9676;BME280;4876;42.656;23.292;2022-09-27T02:55:07;93358.63;;;13.85;100.00
9676;BME280;4876;42.656;23.292;2022-09-27T02:57:46;93376.44;;;13.88;100.00
9676;BME280;4876;42.656;23.292;2022-09-27T03:00:16;93373.25;;;14.01;100.00
9676;BME280;4876;42.656;23.292;2022-09-27T03:02:51;93357.69;;;13.96;100.00
9676;BME280;4876;42.656;23.292;2022-09-27T03:05:23;93345.78;;;14.10;100.00
9676;BME280;4876;42.656;23.292;2022-09-27T03:07:50;93335.13;;;14.29;100.00
9676;BME280;4876;42.656;23.292;2022-09-27T03:10:18;93309.16;;;14.35;100.00
9676;BME280;4876;42.656;23.292;2022-09-27T03:12:46;93309.91;;;14.35;100.00
9676;BME280;4876;42.656;23.292;2022-09-27T03:15:12;93310.00;;;14.42;100.00
9676;BME280;4876;42.656;23.292;2022-09-27T03:17:39;93307.03;;;14.21;100.00
9676;BME280;4876;42.656;23.292;2022-09-27T03:20:07;93304.50;;;14.01;100.00
9676;BME280;4876;42.656;23.292;2022-09-27T03:22:35;93302.34;;;14.07;100.00
9676;BME280;4876;42.656;23.292;2022-09-27T03:25:04;93293.72;;;14.14;100.00
9676;BME280;4876;42.656;23.292;2022-09-27T03:27:31;93304.28;;;14.10;100.00
9676;BME280;4876;42.656;23.292;2022-09-27T03:29:58;93299.78;;;14.14;100.00
9676;BME280;4876;42.656;23.292;2022-09-27T03:32:26;93294.03;;;14.09;100.00
9676;BME280;4876;42.656;23.292;2022-09-27T03:34:52;93304.41;;;14.21;100.00
9676;BME280;4876;42.656;23.292;2022-09-27T03:37:20;93307.56;;;14.30;100.00
9676;BME280;4876;42.656;23.292;2022-09-27T03:39:48;93298.31;;;14.17;100.00
9676;BME280;4876;42.656;23.292;2022-09-27T03:42:15;93298.50;;;14.31;100.00
9676;BME280;4876;42.656;23.292;2022-09-27T03:44:41;93289.81;;;14.31;100.00
9676;BME280;4876;42.656;23.292;2022-09-27T03:47:08;93283.69;;;14.23;100.00
9676;BME280;4876;42.656;23.292;2022-09-27T03:49:35;93289.13;;;14.37;100.00
9676;BME280;4876;42.656;23.292;2022-09-27T03:52:02;93300.41;;;14.34;100.00
9676;BME280;4876;42.656;23.292;2022-09-27T03:54:29;93305.94;;;14.48;100.00
9676;BME280;4876;42.656;23.292;2022-09-27T03:56:58;93298.28;;;14.43;100.00
9676;BME280;4876;42.656;23.292;2022-09-27T03:59:25;93294.88;;;14.43;100.00
9676;BME280;4876;42.656;23.292;2022-09-27T04:01:52;93318.44;;;14.51;100.00
9676;BME280;4876;42.656;23.292;2022-09-27T04:04:19;93312.94;;;14.37;100.00
9676;BME280;4876;42.656;23.292;2022-09-27T04:06:45;93304.63;;;14.35;100.00
9676;BME280;4876;42.656;23.292;2022-09-27T04:09:13;93300.94;;;14.43;100.00
9676;BME280;4876;42.656;23.292;2022-09-27T04:11:40;93301.81;;;14.51;100.00
9676;BME280;4876;42.656;23.292;2022-09-27T04:14:08;93266.84;;;14.38;100.00
9676;BME280;4876;42.656;23.292;2022-09-27T04:16:37;93290.53;;;14.58;100.00
9676;BME280;4876;42.656;23.292;2022-09-27T04:19:04;93299.59;;;14.57;100.00
9676;BME280;4876;42.656;23.292;2022-09-27T04:21:31;93288.84;;;14.42;100.00
9676;BME280;4876;42.656;23.292;2022-09-27T04:23:58;93295.81;;;14.54;100.00
9676;BME280;4876;42.656;23.292;2022-09-27T04:26:25;93302.72;;;14.62;100.00
9676;BME280;4876;42.656;23.292;2022-09-27T04:28:52;93296.00;;;14.72;100.00
9676;BME280;4876;42.656;23.292;2022-09-27T04:31:21;93283.13;;;14.67;100.00
9676;BME280;4876;42.656;23.292;2022-09-27T04:33:47;93284.06;;;14.85;100.00
9676;BME280;4876;42.656;23.292;2022-09-27T04:36:16;93285.28;;;14.91;100.00
9676;BME280;4876;42.656;23.292;2022-09-27T04:38:52;93280.13;;;14.72;100.00
9676;BME280;4876;42.656;23.292;2022-09-27T04:41:20;93276.56;;;14.57;100.00
9676;BME280;4876;42.656;23.292;2022-09-27T04:43:48;93282.53;;;14.50;100.00
9676;BME280;4876;42.656;23.292;2022-09-27T04:46:15;93292.41;;;14.53;100.00
9676;BME280;4876;42.656;23.292;2022-09-27T04:48:43;93305.94;;;14.48;100.00
9676;BME280;4876;42.656;23.292;2022-09-27T04:51:13;93311.78;;;14.65;100.00
9676;BME280;4876;42.656;23.292;2022-09-27T04:53:42;93310.66;;;14.62;100.00
9676;BME280;4876;42.656;23.292;2022-09-27T04:56:09;93309.91;;;14.65;100.00
9676;BME280;4876;42.656;23.292;2022-09-27T04:58:36;93301.25;;;14.68;100.00
9676;BME280;4876;42.656;23.292;2022-09-27T05:01:03;93301.78;;;14.47;100.00
9676;BME280;4876;42.656;23.292;2022-09-27T05:03:30;93292.28;;;14.46;100.00
9676;BME280;4876;42.656;23.292;2022-09-27T05:05:59;93293.31;;;14.38;100.00
9676;BME280;4876;42.656;23.292;2022-09-27T05:08:27;93288.56;;;14.51;100.00
9676;BME280;4876;42.656;23.292;2022-09-27T05:10:54;93277.81;;;14.67;100.00
9676;BME280;4876;42.656;23.292;2022-09-27T05:13:21;93278.66;;;14.74;100.00
9676;BME280;4876;42.656;23.292;2022-09-27T05:15:48;93269.97;;;14.74;100.00
9676;BME280;4876;42.656;23.292;2022-09-27T05:18:16;93274.94;;;14.79;100.00
9676;BME280;4876;42.656;23.292;2022-09-27T05:20:43;93267.75;;;14.79;100.00
9676;BME280;4876;42.656;23.292;2022-09-27T05:23:11;93273.97;;;14.61;100.00
9676;BME280;4876;42.656;23.292;2022-09-27T05:25:39;93275.31;;;14.47;100.00
9676;BME280;4876;42.656;23.292;2022-09-27T05:28:06;93259.13;;;14.52;100.00
9676;BME280;4876;42.656;23.292;2022-09-27T05:30:34;93258.81;;;14.58;100.00
9676;BME280;4876;42.656;23.292;2022-09-27T05:33:01;93250.47;;;14.56;100.00
9676;BME280;4876;42.656;23.292;2022-09-27T05:35:27;93275.72;;;14.49;100.00
9676;BME280;4876;42.656;23.292;2022-09-27T05:37:56;93275.91;;;14.37;100.00
9676;BME280;4876;42.656;23.292;2022-09-27T05:40:25;93234.81;;;14.13;100.00
9676;BME280;4876;42.656;23.292;2022-09-27T05:42:54;93294.31;;;14.57;100.00
9676;BME280;4876;42.656;23.292;2022-09-27T05:45:22;93276.75;;;14.75;100.00
9676;BME280;4876;42.656;23.292;2022-09-27T05:47:53;93280.22;;;14.79;100.00
9676;BME280;4876;42.656;23.292;2022-09-27T05:50:21;93274.44;;;14.70;100.00
9676;BME280;4876;42.656;23.292;2022-09-27T05:52:48;93178.84;;;14.08;100.00
9676;BME280;4876;42.656;23.292;2022-09-27T05:55:15;93270.34;;;14.76;100.00
9676;BME280;4876;42.656;23.292;2022-09-27T05:57:53;93256.22;;;14.65;100.00
9676;BME280;4876;42.656;23.292;2022-09-27T06:00:20;93271.41;;;14.68;100.00
9676;BME280;4876;42.656;23.292;2022-09-27T06:02:52;93272.19;;;14.72;100.00
9676;BME280;4876;42.656;23.292;2022-09-27T06:05:21;93231.47;;;14.16;100.00
9676;BME280;4876;42.656;23.292;2022-09-27T06:07:48;93271.63;;;14.56;100.00
9676;BME280;4876;42.656;23.292;2022-09-27T06:10:15;93282.38;;;14.70;100.00
9676;BME280;4876;42.656;23.292;2022-09-27T06:12:43;93274.13;;;14.75;100.00
9676;BME280;4876;42.656;23.292;2022-09-27T06:15:10;93265.88;;;14.84;100.00
9676;BME280;4876;42.656;23.292;2022-09-27T06:17:39;93274.81;;;14.72;100.00
9676;BME280;4876;42.656;23.292;2022-09-27T06:20:06;93275.69;;;14.79;100.00
9676;BME280;4876;42.656;23.292;2022-09-27T06:22:33;93276.16;;;14.89;100.00
9676;BME280;4876;42.656;23.292;2022-09-27T06:25:01;93277.78;;;14.97;100.00
9676;BME280;4876;42.656;23.292;2022-09-27T06:27:28;93271.78;;;15.03;100.00
9676;BME280;4876;42.656;23.292;2022-09-27T06:29:57;93276.09;;;15.19;100.00
9676;BME280;4876;42.656;23.292;2022-09-27T06:32:24;93279.22;;;15.28;100.00
9676;BME280;4876;42.656;23.292;2022-09-27T06:34:51;93273.66;;;15.44;100.00
9676;BME280;4876;42.656;23.292;2022-09-27T06:37:18;93280.84;;;15.43;100.00
9676;BME280;4876;42.656;23.292;2022-09-27T06:39:44;93275.50;;;15.36;100.00
9676;BME280;4876;42.656;23.292;2022-09-27T06:42:13;93273.75;;;15.54;100.00
9676;BME280;4876;42.656;23.292;2022-09-27T06:44:40;93270.31;;;15.50;100.00
9676;BME280;4876;42.656;23.292;2022-09-27T06:47:08;93275.66;;;15.57;100.00
9676;BME280;4876;42.656;23.292;2022-09-27T06:49:36;93286.28;;;15.61;100.00
9676;BME280;4876;42.656;23.292;2022-09-27T06:52:04;93273.56;;;15.33;100.00
9676;BME280;4876;42.656;23.292;2022-09-27T06:54:31;93280.88;;;15.47;100.00
9676;BME280;4876;42.656;23.292;2022-09-27T06:56:58;93271.88;;;15.55;100.00
9676;BME280;4876;42.656;23.292;2022-09-27T06:59:25;93267.97;;;15.45;100.00
9676;BME280;4876;42.656;23.292;2022-09-27T07:02:10;93276.34;;;15.47;100.00
9676;BME280;4876;42.656;23.292;2022-09-27T07:04:38;93289.88;;;15.39;100.00
9676;BME280;4876;42.656;23.292;2022-09-27T07:07:05;93292.47;;;15.31;100.00
9676;BME280;4876;42.656;23.292;2022-09-27T07:09:32;93291.38;;;15.36;100.00
9676;BME280;4876;42.656;23.292;2022-09-27T07:11:58;93275.59;;;15.50;100.00
9676;BME280;4876;42.656;23.292;2022-09-27T07:14:26;93284.78;;;15.60;100.00
9676;BME280;4876;42.656;23.292;2022-09-27T07:16:52;93289.41;;;15.67;100.00
9676;BME280;4876;42.656;23.292;2022-09-27T07:19:20;93269.59;;;15.53;100.00
9676;BME280;4876;42.656;23.292;2022-09-27T07:21:49;93273.97;;;15.35;100.00
9676;BME280;4876;42.656;23.292;2022-09-27T07:24:16;93283.19;;;15.52;100.00
9676;BME280;4876;42.656;23.292;2022-09-27T07:26:43;93269.06;;;15.37;100.00
9676;BME280;4876;42.656;23.292;2022-09-27T07:29:11;93276.09;;;15.19;100.00
9676;BME280;4876;42.656;23.292;2022-09-27T07:31:38;93283.97;;;15.12;100.00
9676;BME280;4876;42.656;23.292;2022-09-27T07:34:07;93285.84;;;15.11;100.00
9676;BME280;4876;42.656;23.292;2022-09-27T07:36:35;93294.88;;;15.06;100.00
9676;BME280;4876;42.656;23.292;2022-09-27T07:39:02;93285.78;;;15.04;100.00
9676;BME280;4876;42.656;23.292;2022-09-27T07:41:29;93299.41;;;15.06;100.00
9676;BME280;4876;42.656;23.292;2022-09-27T07:43:56;93318.19;;;15.31;100.00
9676;BME280;4876;42.656;23.292;2022-09-27T07:46:24;93316.63;;;15.26;100.00
9676;BME280;4876;42.656;23.292;2022-09-27T07:48:51;93319.84;;;15.46;100.00
9676;BME280;4876;42.656;23.292;2022-09-27T07:51:18;93316.19;;;15.21;100.00
9676;BME280;4876;42.656;23.292;2022-09-27T07:53:46;93307.06;;;15.15;100.00
9676;BME280;4876;42.656;23.292;2022-09-27T07:56:12;93314.59;;;15.13;100.00
9676;BME280;4876;42.656;23.292;2022-09-27T07:58:39;93303.63;;;15.11;100.00
9676;BME280;4876;42.656;23.292;2022-09-27T08:01:07;93311.63;;;15.18;100.00
9676;BME280;4876;42.656;23.292;2022-09-27T08:03:34;93289.22;;;15.08;100.00
9676;BME280;4876;42.656;23.292;2022-09-27T08:06:01;93262.53;;;14.87;100.00
9676;BME280;4876;42.656;23.292;2022-09-27T08:08:29;93242.50;;;14.89;100.00
9676;BME280;4876;42.656;23.292;2022-09-27T08:10:57;93268.34;;;15.03;100.00
9676;BME280;4876;42.656;23.292;2022-09-27T08:13:24;93251.00;;;15.05;100.00
9676;BME280;4876;42.656;23.292;2022-09-27T08:15:51;93271.41;;;15.05;100.00
9676;BME280;4876;42.656;23.292;2022-09-27T08:18:18;93287.75;;;15.14;100.00
9676;BME280;4876;42.656;23.292;2022-09-27T08:20:46;93309.88;;;15.32;100.00
9676;BME280;4876;42.656;23.292;2022-09-27T08:23:13;93286.81;;;14.96;100.00
9676;BME280;4876;42.656;23.292;2022-09-27T08:25:40;93310.56;;;15.26;100.00
9676;BME280;4876;42.656;23.292;2022-09-27T08:28:09;93255.97;;;15.11;100.00
9676;BME280;4876;42.656;23.292;2022-09-27T08:30:36;93286.19;;;15.47;100.00
9676;BME280;4876;42.656;23.292;2022-09-27T08:33:02;93276.34;;;15.47;100.00
9676;BME280;4876;42.656;23.292;2022-09-27T08:35:31;93258.19;;;15.49;100.00
9676;BME280;4876;42.656;23.292;2022-09-27T08:37:59;93267.44;;;15.70;100.00
9676;BME280;4876;42.656;23.292;2022-09-27T08:40:33;93268.28;;;15.81;100.00
9676;BME280;4876;42.656;23.292;2022-09-27T08:43:10;93267.50;;;15.77;100.00
9676;BME280;4876;42.656;23.292;2022-09-27T08:45:47;93269.66;;;16.19;100.00
9676;BME280;4876;42.656;23.292;2022-09-27T08:48:22;93258.00;;;16.38;100.00
9676;BME280;4876;42.656;23.292;2022-09-27T08:50:49;93258.81;;;16.46;100.00
9676;BME280;4876;42.656;23.292;2022-09-27T08:53:19;93267.53;;;16.46;100.00
9676;BME280;4876;42.656;23.292;2022-09-27T08:55:49;93264.53;;;16.55;100.00
9676;BME280;4876;42.656;23.292;2022-09-27T08:58:24;93262.38;;;16.82;100.00
9676;BME280;4876;42.656;23.292;2022-09-27T09:00:53;93254.06;;;16.94;100.00
9676;BME280;4876;42.656;23.292;2022-09-27T09:03:23;93260.53;;;17.07;100.00
9676;BME280;4876;42.656;23.292;2022-09-27T09:06:08;93232.84;;;17.01;100.00
9676;BME280;4876;42.656;23.292;2022-09-27T09:08:43;93241.59;;;17.23;100.00
9676;BME280;4876;42.656;23.292;2022-09-27T09:11:26;93233.63;;;17.23;100.00
9676;BME280;4876;42.656;23.292;2022-09-27T09:14:33;93237.06;;;17.31;100.00
9676;BME280;4876;42.656;23.292;2022-09-27T09:17:08;93229.84;;;17.60;100.00
9676;BME280;4876;42.656;23.292;2022-09-27T09:19:50;93252.66;;;17.93;100.00
9676;BME280;4876;42.656;23.292;2022-09-27T09:22:42;93253.03;;;18.02;100.00
9676;BME280;4876;42.656;23.292;2022-09-27T09:25:30;93237.78;;;18.20;100.00
9676;BME280;4876;42.656;23.292;2022-09-27T09:28:10;93230.56;;;18.10;100.00
9676;BME280;4876;42.656;23.292;2022-09-27T09:30:51;93249.91;;;18.39;100.00
9676;BME280;4876;42.656;23.292;2022-09-27T09:33:24;93243.75;;;18.53;100.00
9676;BME280;4876;42.656;23.292;2022-09-27T09:35:55;93241.88;;;18.43;100.00
9676;BME280;4876;42.656;23.292;2022-09-27T09:38:33;93238.81;;;18.51;100.00
9676;BME280;4876;42.656;23.292;2022-09-27T09:41:05;93231.63;;;18.38;100.00
9676;BME280;4876;42.656;23.292;2022-09-27T09:43:35;93230.16;;;18.26;100.00
9676;BME280;4876;42.656;23.292;2022-09-27T09:46:09;93241.63;;;17.98;100.00
9676;BME280;4876;42.656;23.292;2022-09-27T09:48:41;93259.06;;;18.20;100.00
9676;BME280;4876;42.656;23.292;2022-09-27T09:51:13;93246.19;;;17.87;100.00
9676;BME280;4876;42.656;23.292;2022-09-27T09:53:46;93243.94;;;17.78;100.00
9676;BME280;4876;42.656;23.292;2022-09-27T09:56:19;93250.75;;;17.75;100.00
9676;BME280;4876;42.656;23.292;2022-09-27T09:58:52;93215.03;;;17.55;100.00
9676;BME280;4876;42.656;23.292;2022-09-27T10:01:25;93240.84;;;17.62;100.00
9676;BME280;4876;42.656;23.292;2022-09-27T10:03:53;93241.25;;;17.74;100.00
9676;BME280;4876;42.656;23.292;2022-09-27T10:06:21;93239.38;;;17.79;100.00
9676;BME280;4876;42.656;23.292;2022-09-27T10:08:49;93245.41;;;17.61;100.00
9676;BME280;4876;42.656;23.292;2022-09-27T10:11:23;93233.28;;;17.78;100.00
9676;BME280;4876;42.656;23.292;2022-09-27T10:13:50;93244.66;;;17.96;100.00
9676;BME280;4876;42.656;23.292;2022-09-27T10:16:21;93220.00;;;17.89;100.00
9676;BME280;4876;42.656;23.292;2022-09-27T10:18:50;93244.28;;;18.01;100.00
9676;BME280;4876;42.656;23.292;2022-09-27T10:21:24;93225.22;;;18.17;100.00
9676;BME280;4876;42.656;23.292;2022-09-27T10:24:17;93224.78;;;18.40;100.00
9676;BME280;4876;42.656;23.292;2022-09-27T10:26:46;93223.16;;;18.68;100.00
9676;BME280;4876;42.656;23.292;2022-09-27T10:29:22;93215.50;;;18.80;100.00
9676;BME280;4876;42.656;23.292;2022-09-27T10:31:51;93229.25;;;18.61;100.00
9676;BME280;4876;42.656;23.292;2022-09-27T10:34:29;93214.03;;;18.76;100.00
9676;BME280;4876;42.656;23.292;2022-09-27T10:37:10;93215.63;;;18.52;100.00
9676;BME280;4876;42.656;23.292;2022-09-27T10:39:41;93220.13;;;18.62;100.00
9676;BME280;4876;42.656;23.292;2022-09-27T10:42:30;93212.97;;;18.52;100.00
9676;BME280;4876;42.656;23.292;2022-09-27T10:44:58;93204.19;;;18.55;100.00
9676;BME280;4876;42.656;23.292;2022-09-27T10:47:46;93212.50;;;18.71;100.00
9676;BME280;4876;42.656;23.292;2022-09-27T10:50:17;93189.56;;;18.92;100.00
9676;BME280;4876;42.656;23.292;2022-09-27T10:52:46;93183.50;;;18.88;100.00
9676;BME280;4876;42.656;23.292;2022-09-27T10:55:20;93181.19;;;18.93;100.00
9676;BME280;4876;42.656;23.292;2022-09-27T10:57:49;93151.63;;;18.66;100.00
9676;BME280;4876;42.656;23.292;2022-09-27T11:00:21;93160.75;;;18.72;100.00
9676;BME280;4876;42.656;23.292;2022-09-27T11:02:52;93152.22;;;18.99;100.00
9676;BME280;4876;42.656;23.292;2022-09-27T11:05:32;93161.41;;;18.91;100.00
9676;BME280;4876;42.656;23.292;2022-09-27T11:08:01;93156.03;;;18.98;100.00
9676;BME280;4876;42.656;23.292;2022-09-27T11:10:29;93162.88;;;18.99;100.00
9676;BME280;4876;42.656;23.292;2022-09-27T11:13:09;93144.63;;;18.94;98.71
9676;BME280;4876;42.656;23.292;2022-09-27T11:15:48;93165.06;;;19.11;98.23
9676;BME280;4876;42.656;23.292;2022-09-27T11:18:26;93158.66;;;19.05;100.00
9676;BME280;4876;42.656;23.292;2022-09-27T11:21:02;93156.88;;;19.36;99.48
9676;BME280;4876;42.656;23.292;2022-09-27T11:23:45;93160.03;;;19.69;97.65
9676;BME280;4876;42.656;23.292;2022-09-27T11:26:27;93151.66;;;19.70;94.30
9676;BME280;4876;42.656;23.292;2022-09-27T11:29:04;93156.78;;;19.92;92.59
9676;BME280;4876;42.656;23.292;2022-09-27T11:31:40;93138.31;;;20.08;93.37
9676;BME280;4876;42.656;23.292;2022-09-27T11:34:30;93130.66;;;20.10;91.29
9676;BME280;4876;42.656;23.292;2022-09-27T11:37:11;93122.94;;;20.19;89.70
9676;BME280;4876;42.656;23.292;2022-09-27T11:39:53;93115.41;;;20.41;87.55
9676;BME280;4876;42.656;23.292;2022-09-27T11:42:37;93124.09;;;20.49;88.10
9676;BME280;4876;42.656;23.292;2022-09-27T11:45:24;93119.47;;;20.53;86.15
9676;BME280;4876;42.656;23.292;2022-09-27T11:48:02;93118.59;;;20.63;85.13
9676;BME280;4876;42.656;23.292;2022-09-27T11:50:45;93108.97;;;20.69;83.33
9676;BME280;4876;42.656;23.292;2022-09-27T11:53:24;93110.69;;;20.79;83.00
9676;BME280;4876;42.656;23.292;2022-09-27T11:56:03;93104.72;;;20.72;82.79
9676;BME280;4876;42.656;23.292;2022-09-27T11:58:40;93097.09;;;20.70;86.46
9676;BME280;4876;42.656;23.292;2022-09-27T12:01:19;93086.81;;;20.95;86.87
9676;BME280;4876;42.656;23.292;2022-09-27T12:04:16;93088.66;;;21.22;76.41
9676;BME280;4876;42.656;23.292;2022-09-27T12:06:57;93074.41;;;21.32;79.07
9676;BME280;4876;42.656;23.292;2022-09-27T12:09:29;93077.50;;;21.50;75.89
9676;BME280;4876;42.656;23.292;2022-09-27T12:11:59;93074.41;;;21.52;77.75
9676;BME280;4876;42.656;23.292;2022-09-27T12:14:33;93056.78;;;21.55;77.51
9676;BME280;4876;42.656;23.292;2022-09-27T12:17:04;93077.50;;;21.50;73.44
9676;BME280;4876;42.656;23.292;2022-09-27T12:19:35;93071.16;;;21.84;70.69
9676;BME280;4876;42.656;23.292;2022-09-27T12:22:10;93075.75;;;22.03;72.95
9676;BME280;4876;42.656;23.292;2022-09-27T12:24:38;93076.16;;;22.22;73.25
9676;BME280;4876;42.656;23.292;2022-09-27T12:27:09;93024.47;;;22.25;71.72
9676;BME280;4876;42.656;23.292;2022-09-27T12:29:40;93016.97;;;22.16;65.10
9676;BME280;4876;42.656;23.292;2022-09-27T12:32:13;93018.47;;;22.37;66.00
9676;BME280;4876;42.656;23.292;2022-09-27T12:34:46;93008.91;;;22.52;63.74
9676;BME280;4876;42.656;23.292;2022-09-27T12:37:19;93018.22;;;22.64;68.72
9676;BME280;4876;42.656;23.292;2022-09-27T12:39:52;92998.94;;;22.20;68.24
9676;BME280;4876;42.656;23.292;2022-09-27T12:42:23;93002.28;;;22.24;67.10
9676;BME280;4876;42.656;23.292;2022-09-27T12:44:51;92999.28;;;22.39;66.96
9676;BME280;4876;42.656;23.292;2022-09-27T12:47:39;93018.13;;;22.51;66.00
9676;BME280;4876;42.656;23.292;2022-09-27T12:50:17;92986.41;;;22.50;64.83
9676;BME280;4876;42.656;23.292;2022-09-27T12:52:52;93001.38;;;22.47;65.42
9676;BME280;4876;42.656;23.292;2022-09-27T12:55:35;93008.59;;;22.67;65.45
9676;BME280;4876;42.656;23.292;2022-09-27T12:58:39;92974.94;;;22.66;68.70
9676;BME280;4876;42.656;23.292;2022-09-27T13:01:18;92983.16;;;22.42;63.21
9676;BME280;4876;42.656;23.292;2022-09-27T13:07:01;92998.47;;;23.07;62.08
9676;BME280;4876;42.656;23.292;2022-09-27T13:12:47;93009.78;;;23.44;59.37
9676;BME280;4876;42.656;23.292;2022-09-27T13:15:19;92986.72;;;23.46;54.99
9676;BME280;4876;42.656;23.292;2022-09-27T13:17:50;92987.88;;;23.61;55.87
9676;BME280;4876;42.656;23.292;2022-09-27T13:26:49;92991.16;;;23.82;56.63
9676;BME280;4876;42.656;23.292;2022-09-27T13:29:34;92973.41;;;23.84;57.31
9676;BME280;4876;42.656;23.292;2022-09-27T13:32:19;92973.53;;;23.81;57.08
9676;BME280;4876;42.656;23.292;2022-09-27T13:34:48;92953.31;;;23.63;55.61
9676;BME280;4876;42.656;23.292;2022-09-27T13:37:46;92963.97;;;23.80;56.52
9676;BME280;4876;42.656;23.292;2022-09-27T13:40:31;92971.81;;;23.87;57.13